createdAt,value
2018-09-16T00:00:12.901Z,3.53
2018-09-16T00:02:41.187Z,2.80
2018-09-16T00:05:09.463Z,3.07
2018-09-16T00:07:37.841Z,5.23
2018-09-16T00:10:06.175Z,3.97
2018-09-16T00:12:34.513Z,3.07
2018-09-16T00:15:02.847Z,3.13
2018-09-16T00:17:31.184Z,3.63
2018-09-16T00:19:59.486Z,3.93
2018-09-16T00:22:27.843Z,5.00
2018-09-16T00:24:56.312Z,5.73
2018-09-16T00:27:24.663Z,3.23
2018-09-16T00:29:53.064Z,2.37
2018-09-16T00:32:26.700Z,2.83
2018-09-16T00:34:55.022Z,4.83
2018-09-16T00:37:23.327Z,4.63
2018-09-16T00:39:51.689Z,4.23
2018-09-16T00:42:19.991Z,2.40
2018-09-16T00:44:48.275Z,2.87
2018-09-16T00:47:16.705Z,1.87
2018-09-16T00:49:45.072Z,2.70
2018-09-16T00:52:13.390Z,2.70
2018-09-16T00:54:41.676Z,2.20
2018-09-16T00:57:10.025Z,2.07
2018-09-16T00:59:38.407Z,1.93
2018-09-16T01:02:06.751Z,2.10
2018-09-16T01:04:35.057Z,4.30
2018-09-16T01:07:03.428Z,2.07
2018-09-16T01:09:31.804Z,2.10
2018-09-16T01:12:00.275Z,4.07
2018-09-16T01:14:28.734Z,1.93
2018-09-16T01:16:57.049Z,2.47
2018-09-16T01:19:25.376Z,1.93
2018-09-16T01:21:53.795Z,3.63
2018-09-16T01:24:22.345Z,1.67
2018-09-16T01:26:50.678Z,2.93
2018-09-16T01:29:19.048Z,4.03
2018-09-16T01:31:47.363Z,2.30
2018-09-16T01:34:15.697Z,1.63
2018-09-16T01:36:44.087Z,3.03
2018-09-16T01:39:12.413Z,5.13
2018-09-16T01:41:40.795Z,3.90
2018-09-16T01:44:09.149Z,4.20
2018-09-16T01:46:37.489Z,1.00
2018-09-16T01:49:05.971Z,2.00
2018-09-16T01:51:34.407Z,1.43
2018-09-16T01:54:02.706Z,1.93
2018-09-16T01:56:31.102Z,1.67
2018-09-16T01:58:59.565Z,1.50
2018-09-16T02:01:28.019Z,7.80
2018-09-16T02:03:56.339Z,1.93
2018-09-16T02:06:24.771Z,1.63
2018-09-16T02:08:53.095Z,3.03
2018-09-16T02:11:21.502Z,1.50
2018-09-16T02:13:49.919Z,3.30
2018-09-16T02:16:18.224Z,1.67
2018-09-16T02:18:46.548Z,1.40
2018-09-16T02:21:14.892Z,2.57
2018-09-16T02:23:43.491Z,2.07
2018-09-16T02:26:11.842Z,1.60
2018-09-16T02:28:40.161Z,1.53
2018-09-16T02:31:08.743Z,1.87
2018-09-16T02:33:37.080Z,0.97
2018-09-16T02:36:06.775Z,2.70
2018-09-16T02:38:35.181Z,2.43
2018-09-16T02:41:03.566Z,2.40
2018-09-16T02:43:31.930Z,2.77
2018-09-16T02:46:00.216Z,2.40
2018-09-16T02:48:28.576Z,3.10
2018-09-16T02:50:56.873Z,2.57
2018-09-16T02:53:25.209Z,1.20
2018-09-16T02:55:53.504Z,2.33
2018-09-16T02:58:21.820Z,1.17
2018-09-16T03:00:50.255Z,4.07
2018-09-16T03:03:18.607Z,2.13
2018-09-16T03:05:48.048Z,1.43
2018-09-16T03:08:16.769Z,1.93
2018-09-16T03:10:45.295Z,1.60
2018-09-16T03:13:13.951Z,1.70
2018-09-16T03:15:42.305Z,2.40
2018-09-16T03:18:10.680Z,1.20
2018-09-16T03:20:39.128Z,3.13
2018-09-16T03:23:07.452Z,1.90
2018-09-16T03:25:35.905Z,1.33
2018-09-16T03:28:04.397Z,3.03
2018-09-16T03:30:32.845Z,2.13
2018-09-16T03:33:01.263Z,1.23
2018-09-16T03:35:29.584Z,2.17
2018-09-16T03:37:57.902Z,1.30
2018-09-16T03:40:26.243Z,1.63
2018-09-16T03:42:54.556Z,3.07
2018-09-16T03:45:22.876Z,1.47
2018-09-16T03:47:51.251Z,1.23
2018-09-16T03:50:19.591Z,3.93
2018-09-16T03:52:47.926Z,3.57
2018-09-16T03:55:16.310Z,1.53
2018-09-16T03:57:44.693Z,2.33
2018-09-16T04:00:12.953Z,2.63
2018-09-16T04:02:41.338Z,2.60
2018-09-16T04:05:09.710Z,1.57
2018-09-16T04:07:38.048Z,2.90
2018-09-16T04:10:06.591Z,2.40
2018-09-16T04:12:34.925Z,2.57
2018-09-16T04:15:03.284Z,1.80
2018-09-16T04:17:31.674Z,1.50
2018-09-16T04:19:59.971Z,1.60
2018-09-16T04:22:28.284Z,2.60
2018-09-16T04:24:56.577Z,4.10
2018-09-16T04:27:24.904Z,1.87
2018-09-16T04:29:53.216Z,2.13
2018-09-16T04:32:21.580Z,1.87
2018-09-16T04:34:49.875Z,7.03
2018-09-16T04:37:18.199Z,2.50
2018-09-16T04:39:46.522Z,4.40
2018-09-16T04:42:15.032Z,1.33
2018-09-16T04:44:43.392Z,1.80
2018-09-16T04:47:11.891Z,9.67
2018-09-16T04:49:40.200Z,3.93
2018-09-16T04:52:08.641Z,1.70
2018-09-16T04:54:36.966Z,5.27
2018-09-16T04:57:05.566Z,8.80
2018-09-16T04:59:33.999Z,5.20
2018-09-16T05:02:02.346Z,2.20
2018-09-16T05:04:30.701Z,4.13
2018-09-16T05:06:59.006Z,3.67
2018-09-16T05:09:27.345Z,2.37
2018-09-16T05:11:55.683Z,3.47
2018-09-16T05:14:24.035Z,1.77
2018-09-16T05:16:52.335Z,5.73
2018-09-16T05:19:20.668Z,3.93
2018-09-16T05:21:48.992Z,5.00
2018-09-16T05:24:17.319Z,2.67
2018-09-16T05:26:45.657Z,2.73
2018-09-16T05:29:14.027Z,1.57
2018-09-16T05:31:42.391Z,2.43
2018-09-16T05:34:10.723Z,4.77
2018-09-16T05:36:39.028Z,3.53
2018-09-16T05:39:08.919Z,3.43
2018-09-16T05:41:37.243Z,9.90
2018-09-16T05:44:05.802Z,2.63
2018-09-16T05:46:34.112Z,3.67
2018-09-16T05:49:02.699Z,2.10
2018-09-16T05:51:31.014Z,3.13
2018-09-16T05:53:59.341Z,2.77
2018-09-16T05:56:27.726Z,3.80
2018-09-16T05:58:56.571Z,2.77
2018-09-16T06:01:24.996Z,5.90
2018-09-16T06:03:53.305Z,1.93
2018-09-16T06:06:21.587Z,6.23
2018-09-16T06:08:49.907Z,4.60
2018-09-16T06:11:18.231Z,3.40
2018-09-16T06:13:46.721Z,3.17
2018-09-16T06:16:15.049Z,2.60
2018-09-16T06:18:43.486Z,1.83
2018-09-16T06:21:11.960Z,1.70
2018-09-16T06:23:40.268Z,5.23
2018-09-16T06:26:08.546Z,5.03
2018-09-16T06:28:36.941Z,5.27
2018-09-16T06:31:05.272Z,4.23
2018-09-16T06:33:33.643Z,2.50
2018-09-16T06:36:01.915Z,1.90
2018-09-16T06:38:30.233Z,2.53
2018-09-16T06:40:58.572Z,2.17
2018-09-16T06:43:27.008Z,2.63
2018-09-16T06:45:55.406Z,2.50
2018-09-16T06:48:23.903Z,1.87
2018-09-16T06:50:52.255Z,2.93
2018-09-16T06:53:20.558Z,2.10
2018-09-16T06:55:48.908Z,3.37
2018-09-16T06:58:17.306Z,2.57
2018-09-16T07:00:45.691Z,3.87
2018-09-16T07:03:13.935Z,1.93
2018-09-16T07:05:42.437Z,4.03
2018-09-16T07:08:10.882Z,3.43
2018-09-16T07:10:39.347Z,3.10
2018-09-16T07:13:07.786Z,4.73
2018-09-16T07:15:36.111Z,5.90
2018-09-16T07:18:04.415Z,2.57
2018-09-16T07:20:32.826Z,2.60
2018-09-16T07:23:01.107Z,4.80
2018-09-16T07:25:29.409Z,2.37
2018-09-16T07:27:57.728Z,4.40
2018-09-16T07:30:26.092Z,4.67
2018-09-16T07:32:54.519Z,2.37
2018-09-16T07:35:22.890Z,4.07
2018-09-16T07:37:51.179Z,6.00
2018-09-16T07:40:19.523Z,4.80
2018-09-16T07:42:48.460Z,4.53
2018-09-16T07:45:16.818Z,2.33
2018-09-16T07:47:45.189Z,2.60
2018-09-16T07:50:13.553Z,1.93
2018-09-16T07:52:41.905Z,2.70
2018-09-16T07:55:10.235Z,5.40
2018-09-16T07:57:38.563Z,2.57
2018-09-16T08:00:06.937Z,1.63
2018-09-16T08:02:35.251Z,6.00
2018-09-16T08:05:03.787Z,1.97
2018-09-16T08:07:32.218Z,6.53
2018-09-16T08:10:01.111Z,4.67
2018-09-16T08:12:29.647Z,1.80
2018-09-16T08:14:59.056Z,2.53
2018-09-16T08:17:27.500Z,2.27
2018-09-16T08:19:55.978Z,3.20
2018-09-16T08:22:24.342Z,2.50
2018-09-16T08:24:52.699Z,1.30
2018-09-16T08:27:21.040Z,2.37
2018-09-16T08:29:49.423Z,4.93
2018-09-16T08:32:17.763Z,8.63
2018-09-16T08:34:46.109Z,4.37
2018-09-16T08:37:14.506Z,4.60
2018-09-16T08:39:42.840Z,3.33
2018-09-16T08:42:11.187Z,4.60
2018-09-16T08:44:39.503Z,5.73
2018-09-16T08:47:07.844Z,3.97
2018-09-16T08:49:36.245Z,3.37
2018-09-16T08:52:04.594Z,1.40
2018-09-16T08:54:32.989Z,3.37
2018-09-16T08:57:01.368Z,3.47
2018-09-16T08:59:29.683Z,1.43
2018-09-16T09:01:57.996Z,1.57
2018-09-16T09:04:26.416Z,1.53
2018-09-16T09:06:55.236Z,1.30
2018-09-16T09:09:23.538Z,2.70
2018-09-16T09:11:51.878Z,2.30
2018-09-16T09:14:20.364Z,3.13
2018-09-16T09:16:48.658Z,2.07
2018-09-16T09:19:16.955Z,1.50
2018-09-16T09:21:45.272Z,2.93
2018-09-16T09:24:13.583Z,1.93
2018-09-16T09:26:42.003Z,1.83
2018-09-16T09:29:10.342Z,1.87
2018-09-16T09:31:38.644Z,1.53
2018-09-16T09:34:07.179Z,1.43
2018-09-16T09:36:35.508Z,4.20
2018-09-16T09:39:05.801Z,4.33
2018-09-16T09:41:34.161Z,1.50
2018-09-16T09:44:02.610Z,2.37
2018-09-16T09:46:30.939Z,2.33
2018-09-16T09:48:59.445Z,1.73
2018-09-16T09:51:27.814Z,3.33
2018-09-16T09:53:56.163Z,1.53
2018-09-16T09:56:24.674Z,4.47
2018-09-16T09:58:53.090Z,1.87
2018-09-16T10:01:21.480Z,1.47
2018-09-16T10:03:49.832Z,1.70
2018-09-16T10:06:18.193Z,1.97
2018-09-16T10:08:46.631Z,1.40
2018-09-16T10:11:15.019Z,3.13
2018-09-16T10:13:43.426Z,5.53
2018-09-16T10:16:11.867Z,3.90
2018-09-16T10:18:40.314Z,2.67
2018-09-16T10:21:08.660Z,3.08
2018-09-16T10:23:36.970Z,2.87
2018-09-16T10:26:05.413Z,3.17
2018-09-16T10:28:33.713Z,4.58
2018-09-16T10:31:02.103Z,1.95
2018-09-16T10:33:30.475Z,1.37
2018-09-16T10:35:58.917Z,1.60
2018-09-16T10:38:27.321Z,1.52
2018-09-16T10:40:55.626Z,2.27
2018-09-16T10:43:23.921Z,3.55
2018-09-16T10:45:52.245Z,3.20
2018-09-16T10:48:20.738Z,4.90
2018-09-16T10:50:49.058Z,1.80
2018-09-16T10:53:17.959Z,2.60
2018-09-16T10:55:46.383Z,1.50
2018-09-16T10:58:14.815Z,1.40
2018-09-16T11:00:43.265Z,2.22
2018-09-16T11:03:11.616Z,2.92
2018-09-16T11:05:39.938Z,2.87
2018-09-16T11:08:08.337Z,1.77
2018-09-16T11:10:36.611Z,2.22
2018-09-16T11:13:05.049Z,1.60
2018-09-16T11:15:33.447Z,2.02
2018-09-16T11:18:01.999Z,4.50
2018-09-16T11:20:30.462Z,2.30
2018-09-16T11:22:58.797Z,4.30
2018-09-16T11:25:27.084Z,2.52
2018-09-16T11:27:55.452Z,1.75
2018-09-16T11:30:23.778Z,1.57
2018-09-16T11:32:52.133Z,3.62
2018-09-16T11:35:20.488Z,4.60
2018-09-16T11:37:48.875Z,1.95
2018-09-16T11:40:17.316Z,1.75
2018-09-16T11:42:45.759Z,2.37
2018-09-16T11:45:14.174Z,2.02
2018-09-16T11:47:42.593Z,1.55
2018-09-16T11:50:11.251Z,1.77
2018-09-16T11:52:39.733Z,3.95
2018-09-16T11:55:08.126Z,2.87
2018-09-16T11:57:36.753Z,1.90
2018-09-16T12:00:05.358Z,2.80
2018-09-16T12:02:33.751Z,3.25
2018-09-16T12:05:02.244Z,1.95
2018-09-16T12:07:31.390Z,3.50
2018-09-16T12:10:00.128Z,2.45
2018-09-16T12:12:28.485Z,1.80
2018-09-16T12:14:56.772Z,2.05
2018-09-16T12:17:25.175Z,2.75
2018-09-16T12:22:27.318Z,1.90
2018-09-16T12:24:55.772Z,1.90
2018-09-16T12:27:24.107Z,1.80
2018-09-16T12:29:52.407Z,2.00
2018-09-16T12:32:20.709Z,2.00
2018-09-16T12:34:49.015Z,2.80
2018-09-16T12:37:17.369Z,1.77
2018-09-16T12:39:45.700Z,2.05
2018-09-16T12:42:14.285Z,1.80
2018-09-16T12:44:42.653Z,1.65
2018-09-16T12:47:11.040Z,1.70
2018-09-16T12:49:39.537Z,1.80
2018-09-16T12:52:08.145Z,2.00
2018-09-16T12:54:36.596Z,1.87
2018-09-16T12:57:04.993Z,2.83
2018-09-16T12:59:33.294Z,1.57
2018-09-16T13:02:01.700Z,1.82
2018-09-16T13:04:30.139Z,1.70
2018-09-16T13:06:58.495Z,1.52
2018-09-16T13:09:26.789Z,1.98
2018-09-16T13:11:55.120Z,2.77
2018-09-16T13:14:23.426Z,2.05
2018-09-16T13:16:51.710Z,1.92
2018-09-16T13:19:20.034Z,2.67
2018-09-16T13:21:48.422Z,2.00
2018-09-16T13:24:16.823Z,3.52
2018-09-16T13:26:45.159Z,2.20
2018-09-16T13:29:13.584Z,2.27
2018-09-16T13:31:41.978Z,2.42
2018-09-16T13:34:10.271Z,2.25
2018-09-16T13:36:38.571Z,1.70
2018-09-16T13:39:09.039Z,1.70
2018-09-16T13:41:37.507Z,3.72
2018-09-16T13:44:05.898Z,4.03
2018-09-16T13:46:34.394Z,9.70
2018-09-16T13:49:02.716Z,12.75
2018-09-16T13:51:31.059Z,8.90
2018-09-16T13:53:59.440Z,8.55
2018-09-16T13:56:27.759Z,6.60
2018-09-16T13:58:56.171Z,12.00
2018-09-16T14:01:24.455Z,7.87
2018-09-16T14:03:52.815Z,10.50
2018-09-16T14:06:21.154Z,6.92
2018-09-16T14:08:49.650Z,13.10
2018-09-16T14:11:17.951Z,11.60
2018-09-16T14:13:46.283Z,8.23
2018-09-16T14:16:14.684Z,5.90
2018-09-16T14:18:43.107Z,5.22
2018-09-16T14:21:11.420Z,3.10
2018-09-16T14:23:40.016Z,4.12
2018-09-16T14:26:08.311Z,6.62
2018-09-16T14:28:36.628Z,2.27
2018-09-16T14:31:04.966Z,2.20
2018-09-16T14:33:33.292Z,4.62
2018-09-16T14:36:01.611Z,2.30
2018-09-16T14:38:29.921Z,1.80
2018-09-16T14:40:58.271Z,1.82
2018-09-16T14:43:29.220Z,1.87
2018-09-16T14:45:57.620Z,2.52
2018-09-16T14:48:25.947Z,1.80
2018-09-16T14:50:54.251Z,2.37
2018-09-16T14:53:22.571Z,4.20
2018-09-16T14:55:50.940Z,2.47
2018-09-16T14:58:19.248Z,1.82
2018-09-16T15:00:47.641Z,1.92
2018-09-16T15:03:15.977Z,2.95
2018-09-16T15:05:44.296Z,3.80
2018-09-16T15:08:15.191Z,1.85
2018-09-16T15:10:43.641Z,1.92
2018-09-16T15:13:12.382Z,2.27
2018-09-16T15:15:40.762Z,1.90
2018-09-16T15:18:09.277Z,2.10
2018-09-16T15:20:37.595Z,2.37
2018-09-16T15:23:06.165Z,3.20
2018-09-16T15:25:34.707Z,6.23
2018-09-16T15:28:03.237Z,2.47
2018-09-16T15:30:31.534Z,2.17
2018-09-16T15:33:00.003Z,3.07
2018-09-16T15:35:28.324Z,2.10
2018-09-16T15:37:56.788Z,2.33
2018-09-16T15:40:25.186Z,2.80
2018-09-16T15:42:53.790Z,8.33
2018-09-16T15:45:22.105Z,2.03
2018-09-16T15:47:50.414Z,2.53
2018-09-16T15:50:18.839Z,2.33
2018-09-16T15:52:47.236Z,2.57
2018-09-16T15:55:15.703Z,2.60
2018-09-16T15:57:43.967Z,3.90
2018-09-16T16:00:12.325Z,2.20
2018-09-16T16:02:40.751Z,2.30
2018-09-16T16:05:09.098Z,2.50
2018-09-16T16:07:37.443Z,2.20
2018-09-16T16:10:06.125Z,3.07
2018-09-16T16:12:34.427Z,2.37
2018-09-16T16:15:02.787Z,3.60
2018-09-16T16:17:31.132Z,2.10
2018-09-16T16:19:59.476Z,3.00
2018-09-16T16:22:27.948Z,3.20
2018-09-16T16:24:56.273Z,2.40
2018-09-16T16:27:24.568Z,2.87
2018-09-16T16:29:52.983Z,5.43
2018-09-16T16:32:21.333Z,2.47
2018-09-16T16:34:49.839Z,3.57
2018-09-16T16:37:18.189Z,2.67
2018-09-16T16:39:46.588Z,3.20
2018-09-16T16:42:15.226Z,2.20
2018-09-16T16:44:43.621Z,3.53
2018-09-16T16:47:11.939Z,2.50
2018-09-16T16:49:40.267Z,2.33
2018-09-16T16:52:08.659Z,1.70
2018-09-16T16:54:37.039Z,6.10
2018-09-16T16:57:05.419Z,2.07
2018-09-16T16:59:33.775Z,4.17
2018-09-16T17:02:02.115Z,12.97
2018-09-16T17:04:30.501Z,9.37
2018-09-16T17:06:58.884Z,14.03
2018-09-16T17:09:27.269Z,11.50
2018-09-16T17:11:55.581Z,12.17
2018-09-16T17:14:23.936Z,6.03
2018-09-16T17:16:52.407Z,13.93
2018-09-16T17:19:20.946Z,10.53
2018-09-16T17:21:49.343Z,7.90
2018-09-16T17:24:17.682Z,11.97
2018-09-16T17:26:46.204Z,6.77
2018-09-16T17:29:14.671Z,11.83
2018-09-16T17:31:43.008Z,5.23
2018-09-16T17:34:11.320Z,5.60
2018-09-16T17:36:39.601Z,5.73
2018-09-16T17:39:09.478Z,6.40
2018-09-16T17:41:37.843Z,13.30
2018-09-16T17:44:06.320Z,8.67
2018-09-16T17:46:34.601Z,6.27
2018-09-16T17:49:02.995Z,6.13
2018-09-16T17:51:31.488Z,14.67
2018-09-16T17:53:59.802Z,7.37
2018-09-16T17:56:28.194Z,6.47
2018-09-16T17:58:56.595Z,5.70
2018-09-16T18:01:25.071Z,12.90
2018-09-16T18:03:53.404Z,7.53
2018-09-16T18:06:21.724Z,5.17
2018-09-16T18:08:50.081Z,5.83
2018-09-16T18:11:18.594Z,7.33
2018-09-16T18:13:46.956Z,6.37
2018-09-16T18:16:15.325Z,7.03
2018-09-16T18:18:43.681Z,11.37
2018-09-16T18:21:12.766Z,10.80
2018-09-16T18:23:41.224Z,4.87
2018-09-16T18:26:09.601Z,13.03
2018-09-16T18:28:37.916Z,15.57
2018-09-16T18:31:06.252Z,5.87
2018-09-16T18:33:34.599Z,10.90
2018-09-16T18:36:02.984Z,10.73
2018-09-16T18:38:31.299Z,8.77
2018-09-16T18:40:59.770Z,7.93
2018-09-16T18:43:28.237Z,7.63
2018-09-16T18:45:56.548Z,11.30
2018-09-16T18:48:24.893Z,10.87
2018-09-16T18:50:53.331Z,11.73
2018-09-16T18:53:21.635Z,6.80
2018-09-16T18:55:50.120Z,9.00
2018-09-16T18:58:18.507Z,3.50
2018-09-16T19:00:47.006Z,7.30
2018-09-16T19:03:15.327Z,5.80
2018-09-16T19:05:43.651Z,6.07
2018-09-16T19:08:12.019Z,4.47
2018-09-16T19:10:40.364Z,6.77
2018-09-16T19:13:08.713Z,6.57
2018-09-16T19:15:37.048Z,7.80
2018-09-16T19:18:05.583Z,4.10
2018-09-16T19:20:34.053Z,5.10
2018-09-16T19:23:02.347Z,4.37
2018-09-16T19:25:30.723Z,9.97
2018-09-16T19:27:59.051Z,8.47
2018-09-16T19:30:27.503Z,8.20
2018-09-16T19:32:56.083Z,4.33
2018-09-16T19:35:24.456Z,4.70
2018-09-16T19:37:52.896Z,6.23
2018-09-16T19:40:21.283Z,3.30
2018-09-16T19:42:49.603Z,6.03
2018-09-16T19:45:17.990Z,6.13
2018-09-16T19:47:46.333Z,7.63
2018-09-16T19:50:14.739Z,4.17
2018-09-16T19:52:43.060Z,7.37
2018-09-16T19:55:11.375Z,5.73
2018-09-16T19:57:39.725Z,9.47
2018-09-16T20:00:08.188Z,7.27
2018-09-16T20:02:36.526Z,11.90
2018-09-16T20:05:04.921Z,5.97
2018-09-16T20:07:33.235Z,6.10
2018-09-16T20:10:01.652Z,6.83
2018-09-16T20:12:30.016Z,7.03
2018-09-16T20:14:58.370Z,3.50
2018-09-16T20:17:26.740Z,4.87
2018-09-16T20:19:55.268Z,3.30
2018-09-16T20:22:23.659Z,7.60
2018-09-16T20:24:52.033Z,4.50
2018-09-16T20:27:20.350Z,3.93
2018-09-16T20:29:48.838Z,4.93
2018-09-16T20:32:17.320Z,3.80
2018-09-16T20:34:45.716Z,6.13
2018-09-16T20:37:14.082Z,9.07
2018-09-16T20:39:42.933Z,6.63
2018-09-16T20:42:11.397Z,7.97
2018-09-16T20:44:39.713Z,7.07
2018-09-16T20:47:08.054Z,10.57
2018-09-16T20:49:36.373Z,6.07
2018-09-16T20:52:04.771Z,7.07
2018-09-16T20:54:33.075Z,7.67
2018-09-16T20:57:01.435Z,7.67
2018-09-16T20:59:29.755Z,5.67
2018-09-16T21:01:58.151Z,7.77
2018-09-16T21:04:26.578Z,6.37
2018-09-16T21:06:55.023Z,4.00
2018-09-16T21:09:23.337Z,4.83
2018-09-16T21:11:51.783Z,5.63
2018-09-16T21:14:20.131Z,9.00
2018-09-16T21:16:48.640Z,9.43
2018-09-16T21:19:16.936Z,6.17
2018-09-16T21:21:45.333Z,5.77
2018-09-16T21:24:13.791Z,4.50
2018-09-16T21:26:42.332Z,4.30
2018-09-16T21:29:10.698Z,4.50
2018-09-16T21:31:39.060Z,4.37
2018-09-16T21:34:07.349Z,3.67
2018-09-16T21:36:35.723Z,3.73
2018-09-16T21:39:06.216Z,4.93
2018-09-16T21:41:34.630Z,5.47
2018-09-16T21:44:02.972Z,5.07
2018-09-16T21:46:31.323Z,6.27
2018-09-16T21:48:59.683Z,4.77
2018-09-16T21:51:28.098Z,6.97
2018-09-16T21:53:56.498Z,3.50
2018-09-16T21:56:24.771Z,3.67
2018-09-16T21:58:53.140Z,3.87
2018-09-16T22:01:21.510Z,3.17
2018-09-16T22:03:49.854Z,3.77
2018-09-16T22:06:18.286Z,5.00
2018-09-16T22:08:46.956Z,4.67
2018-09-16T22:11:15.351Z,6.70
2018-09-16T22:13:43.745Z,3.43
2018-09-16T22:16:12.112Z,2.77
2018-09-16T22:18:40.445Z,3.33
2018-09-16T22:21:08.757Z,4.17
2018-09-16T22:23:37.078Z,2.40
2018-09-16T22:26:05.444Z,3.07
2018-09-16T22:28:33.908Z,5.70
2018-09-16T22:31:02.463Z,2.90
2018-09-16T22:33:30.792Z,3.10
2018-09-16T22:35:59.153Z,4.20
2018-09-16T22:38:27.458Z,4.57
2018-09-16T22:40:55.825Z,3.13
2018-09-16T22:43:24.206Z,3.30
2018-09-16T22:45:52.545Z,2.90
2018-09-16T22:48:20.876Z,2.57
2018-09-16T22:50:49.248Z,5.10
2018-09-16T22:53:17.664Z,3.50
2018-09-16T22:55:46.198Z,4.40
2018-09-16T22:58:14.756Z,3.20
2018-09-16T23:00:43.627Z,5.33
2018-09-16T23:03:11.971Z,3.67
2018-09-16T23:05:40.273Z,2.90
2018-09-16T23:08:08.759Z,3.70
2018-09-16T23:10:37.116Z,4.03
2018-09-16T23:13:05.443Z,3.10
2018-09-16T23:15:33.817Z,4.37
2018-09-16T23:18:02.167Z,4.07
2018-09-16T23:20:30.543Z,3.00
2018-09-16T23:22:58.901Z,10.77
2018-09-16T23:25:27.347Z,4.33
2018-09-16T23:27:55.943Z,2.53
2018-09-16T23:30:24.452Z,3.30
2018-09-16T23:32:53.041Z,2.80
2018-09-16T23:35:21.406Z,2.77
2018-09-16T23:37:49.834Z,3.67
2018-09-16T23:40:18.185Z,2.50
2018-09-16T23:42:46.588Z,2.70
2018-09-16T23:45:14.974Z,2.63
2018-09-16T23:47:43.332Z,5.57
2018-09-16T23:50:11.651Z,6.67
2018-09-16T23:52:39.984Z,3.00
2018-09-16T23:55:08.277Z,2.93
2018-09-16T23:57:36.632Z,4.27
